createdAt,value
2019-03-25T00:01:46.464Z,99744.44
2019-03-25T00:04:16.301Z,99736.19
2019-03-25T00:06:48.007Z,99738.58
2019-03-25T00:09:17.757Z,99748.87
2019-03-25T00:11:47.707Z,99746.92
2019-03-25T00:14:19.325Z,99747.31
2019-03-25T00:16:49.762Z,99751.05
2019-03-25T00:19:19.522Z,99747.08
2019-03-25T00:21:49.119Z,99749.95
2019-03-25T00:24:23.190Z,99752.11
2019-03-25T00:26:55.893Z,99751.17
2019-03-25T00:29:25.458Z,99748.49
2019-03-25T00:31:58.959Z,99750.30
2019-03-25T00:34:29.353Z,99748.03
2019-03-25T00:36:59.021Z,99745.86
2019-03-25T00:39:28.682Z,99741.06
2019-03-25T00:41:58.301Z,99738.69
2019-03-25T00:44:27.986Z,99731.97
2019-03-25T00:46:57.599Z,99726.60
2019-03-25T00:49:27.769Z,99722.03
2019-03-25T00:52:01.493Z,99722.09
2019-03-25T00:54:31.134Z,99721.95
2019-03-25T00:57:01.602Z,99719.73
2019-03-25T00:59:33.070Z,99721.88
2019-03-25T01:02:04.534Z,99718.58
2019-03-25T01:04:37.532Z,99710.89
2019-03-25T01:07:07.323Z,99713.22
2019-03-25T01:09:36.987Z,99716.81
2019-03-25T01:12:06.722Z,99717.83
2019-03-25T01:14:39.134Z,99716.92
2019-03-25T01:17:08.879Z,99716.16
2019-03-25T01:19:41.047Z,99719.97
2019-03-25T01:22:10.674Z,99710.95
2019-03-25T01:24:40.412Z,99712.13
2019-03-25T01:27:11.396Z,99713.13
2019-03-25T01:29:41.149Z,99708.83
2019-03-25T01:32:10.825Z,99706.39
2019-03-25T01:34:41.587Z,99705.74
2019-03-25T01:37:11.208Z,99704.79
2019-03-25T01:39:40.931Z,99709.45
2019-03-25T01:42:11.566Z,99708.56
2019-03-25T01:44:42.601Z,99707.73
2019-03-25T01:47:12.277Z,99708.72
2019-03-25T01:49:41.976Z,99707.31
2019-03-25T01:52:11.591Z,99693.90
2019-03-25T01:54:41.278Z,99698.40
2019-03-25T01:57:10.900Z,99700.62
2019-03-25T01:59:40.533Z,99700.03
2019-03-25T02:02:10.127Z,99695.23
2019-03-25T02:04:39.875Z,99697.66
2019-03-25T02:07:09.464Z,99696.07
2019-03-25T02:09:39.043Z,99704.69
2019-03-25T02:12:10.324Z,99698.95
2019-03-25T02:14:41.092Z,99706.55
2019-03-25T02:17:11.135Z,99700.98
2019-03-25T02:19:40.787Z,99698.30
2019-03-25T02:22:10.478Z,99700.79
2019-03-25T02:24:40.050Z,99680.48
2019-03-25T02:27:09.722Z,99697.75
2019-03-25T02:29:40.869Z,99699.44
2019-03-25T02:32:10.505Z,99698.07
2019-03-25T02:34:40.099Z,99696.55
2019-03-25T02:37:09.718Z,99685.84
2019-03-25T02:39:39.390Z,99686.55
2019-03-25T02:42:12.145Z,99683.69
2019-03-25T02:44:41.784Z,99683.14
2019-03-25T02:47:12.396Z,99684.72
2019-03-25T02:49:41.994Z,99682.86
2019-03-25T02:52:11.777Z,99683.19
2019-03-25T02:54:43.590Z,99681.05
2019-03-25T02:57:13.239Z,99681.21
2019-03-25T02:59:45.097Z,99677.15
2019-03-25T03:02:17.119Z,99682.00
2019-03-25T03:04:47.850Z,99671.08
2019-03-25T03:07:17.533Z,99673.64
2019-03-25T03:09:47.193Z,99674.83
2019-03-25T03:12:16.824Z,99664.23
2019-03-25T03:14:46.485Z,99674.72
2019-03-25T03:17:17.782Z,99669.39
2019-03-25T03:19:47.402Z,99661.14
2019-03-25T03:22:17.251Z,99657.06
2019-03-25T03:24:46.917Z,99662.30
2019-03-25T03:27:16.572Z,99659.56
2019-03-25T03:29:46.159Z,99657.50
2019-03-25T03:32:17.989Z,99648.72
2019-03-25T03:34:47.618Z,99646.86
2019-03-25T03:37:17.337Z,99643.86
2019-03-25T03:39:47.007Z,99647.19
2019-03-25T03:42:16.702Z,99646.12
2019-03-25T03:44:48.235Z,99647.05
2019-03-25T03:47:17.895Z,99651.30
2019-03-25T03:49:47.555Z,99646.88
2019-03-25T03:52:17.146Z,99645.63
2019-03-25T03:54:47.188Z,99651.23
2019-03-25T03:57:16.852Z,99640.13
2019-03-25T03:59:48.787Z,99642.53
2019-03-25T04:02:18.410Z,99639.20
2019-03-25T04:04:48.053Z,99640.27
2019-03-25T04:07:17.729Z,99635.98
2019-03-25T04:09:47.394Z,99640.12
2019-03-25T04:12:17.070Z,99636.73
2019-03-25T04:14:48.530Z,99642.36
2019-03-25T04:17:18.244Z,99634.68
2019-03-25T04:19:47.851Z,99634.95
2019-03-25T04:22:17.501Z,99633.91
2019-03-25T04:24:47.196Z,99633.19
2019-03-25T04:27:16.839Z,99630.64
2019-03-25T04:29:46.493Z,99625.36
2019-03-25T04:32:16.196Z,99623.02
2019-03-25T04:34:45.805Z,99626.34
2019-03-25T04:37:15.418Z,99627.08
2019-03-25T04:39:45.023Z,99626.61
2019-03-25T04:42:14.661Z,99630.14
2019-03-25T04:44:44.275Z,99630.80
2019-03-25T04:47:14.020Z,99635.70
2019-03-25T04:49:43.585Z,99640.09
2019-03-25T04:52:13.282Z,99631.33
2019-03-25T04:54:42.914Z,99624.98
2019-03-25T04:57:12.527Z,99623.78
2019-03-25T04:59:42.190Z,99628.89
2019-03-25T05:02:11.890Z,99629.55
2019-03-25T05:04:41.572Z,99627.86
2019-03-25T05:07:11.235Z,99615.67
2019-03-25T05:09:40.866Z,99614.13
2019-03-25T05:12:10.508Z,99613.42
2019-03-25T05:14:40.147Z,99618.97
2019-03-25T05:17:12.773Z,99615.64
2019-03-25T05:19:44.559Z,99613.00
2019-03-25T05:22:14.177Z,99602.09
2019-03-25T05:24:44.406Z,99609.41
2019-03-25T05:27:14.153Z,99612.44
2019-03-25T05:29:45.084Z,99615.39
2019-03-25T05:32:16.993Z,99622.50
2019-03-25T05:34:48.714Z,99617.69
2019-03-25T05:37:18.407Z,99620.59
2019-03-25T05:39:48.007Z,99625.71
2019-03-25T05:42:17.705Z,99616.39
2019-03-25T05:44:47.300Z,99613.33
2019-03-25T05:47:17.049Z,99617.33
2019-03-25T05:49:46.690Z,99617.67
2019-03-25T05:52:16.791Z,99631.28
2019-03-25T05:54:46.536Z,99632.55
2019-03-25T05:57:16.208Z,99624.56
2019-03-25T05:59:45.952Z,99614.67
2019-03-25T06:02:15.648Z,99622.59
2019-03-25T06:04:45.349Z,99618.84
2019-03-25T06:07:15.065Z,99614.56
2019-03-25T06:09:44.696Z,99604.31
2019-03-25T06:12:14.422Z,99601.01
2019-03-25T06:14:44.065Z,99605.05
2019-03-25T06:17:14.966Z,99600.40
2019-03-25T06:19:44.598Z,99604.74
2019-03-25T06:22:14.287Z,99606.50
2019-03-25T06:24:43.919Z,99601.25
2019-03-25T06:27:14.628Z,99598.05
2019-03-25T06:29:44.382Z,99607.81
2019-03-25T06:32:14.128Z,99612.03
2019-03-25T06:34:43.900Z,99610.08
2019-03-25T06:37:14.731Z,99609.93
2019-03-25T06:39:44.401Z,99608.25
2019-03-25T06:42:14.106Z,99612.02
2019-03-25T06:44:43.750Z,99614.20
2019-03-25T06:47:15.240Z,99601.58
2019-03-25T06:49:48.111Z,99604.64
2019-03-25T06:52:21.212Z,99612.81
2019-03-25T06:54:50.842Z,99620.11
2019-03-25T06:57:25.609Z,99608.73
2019-03-25T06:59:52.044Z,99609.45
2019-03-25T07:02:23.390Z,99606.13
2019-03-25T07:04:53.127Z,99603.06
2019-03-25T07:07:24.012Z,99601.59
2019-03-25T07:09:54.785Z,99594.44
2019-03-25T07:12:30.844Z,99603.19
2019-03-25T07:15:00.490Z,99593.32
2019-03-25T07:17:31.384Z,99590.50
2019-03-25T07:20:01.021Z,99592.20
2019-03-25T07:22:30.703Z,99589.39
2019-03-25T07:25:00.375Z,99587.58
2019-03-25T07:27:36.679Z,99593.92
2019-03-25T07:30:01.358Z,99597.49
2019-03-25T07:32:31.118Z,99595.28
2019-03-25T07:35:00.695Z,99605.94
2019-03-25T07:37:31.788Z,99605.33
2019-03-25T07:40:01.424Z,99602.52
2019-03-25T07:42:30.971Z,99606.28
2019-03-25T07:45:00.689Z,99605.78
2019-03-25T07:47:30.312Z,99605.78
2019-03-25T07:49:59.846Z,99613.28
2019-03-25T07:52:29.466Z,99619.81
2019-03-25T07:54:59.406Z,99615.46
2019-03-25T07:57:29.029Z,99617.95
2019-03-25T07:59:58.748Z,99617.59
2019-03-25T08:02:28.551Z,99615.20
2019-03-25T08:04:58.191Z,99612.45
2019-03-25T08:07:28.037Z,99617.25
2019-03-25T08:09:57.881Z,99612.47
2019-03-25T08:12:27.519Z,99616.55
2019-03-25T08:14:57.343Z,99619.48
2019-03-25T08:17:26.993Z,99616.14
2019-03-25T08:19:57.175Z,99620.48
2019-03-25T08:22:26.883Z,99618.92
2019-03-25T08:24:56.430Z,99625.50
2019-03-25T08:27:26.173Z,99624.11
2019-03-25T08:29:57.996Z,99619.53
2019-03-25T08:32:27.915Z,99625.88
2019-03-25T08:34:58.529Z,99624.08
2019-03-25T08:37:28.668Z,99625.34
2019-03-25T08:39:58.390Z,99624.67
2019-03-25T08:42:27.996Z,99624.35
2019-03-25T08:44:57.601Z,99635.31
2019-03-25T08:47:28.723Z,99627.45
2019-03-25T08:49:58.287Z,99638.52
2019-03-25T08:52:27.938Z,99630.55
2019-03-25T08:54:57.548Z,99640.73
2019-03-25T08:57:27.159Z,99646.39
2019-03-25T08:59:57.796Z,99645.29
2019-03-25T09:02:28.671Z,99647.22
2019-03-25T09:04:59.913Z,99654.09
2019-03-25T09:07:29.496Z,99641.45
2019-03-25T09:09:59.100Z,99643.11
2019-03-25T09:12:28.728Z,99644.19
2019-03-25T09:14:58.345Z,99654.30
2019-03-25T09:17:27.975Z,99651.64
2019-03-25T09:19:57.523Z,99652.44
2019-03-25T09:22:27.111Z,99656.43
2019-03-25T09:24:56.643Z,99647.41
2019-03-25T09:27:27.863Z,99646.28
2019-03-25T09:29:58.689Z,99655.89
2019-03-25T09:32:28.315Z,99643.14
2019-03-25T09:34:59.322Z,99653.41
2019-03-25T09:37:29.071Z,99652.02
2019-03-25T09:39:58.659Z,99657.97
2019-03-25T09:42:28.313Z,99650.13
2019-03-25T09:44:57.898Z,99646.36
2019-03-25T09:47:27.603Z,99642.99
2019-03-25T09:49:57.235Z,99637.56
2019-03-25T09:52:37.931Z,99635.02
2019-03-25T09:54:58.373Z,99637.02
2019-03-25T09:57:28.058Z,99628.14
2019-03-25T09:59:57.742Z,99624.70
2019-03-25T10:02:27.469Z,99620.77
2019-03-25T10:04:57.051Z,99621.77
2019-03-25T10:07:28.388Z,99630.14
2019-03-25T10:09:58.221Z,99615.14
2019-03-25T10:12:30.449Z,99619.78
2019-03-25T10:15:01.568Z,99619.87
2019-03-25T10:17:31.191Z,99635.41
2019-03-25T10:20:00.800Z,99615.92
2019-03-25T10:22:30.514Z,99625.69
2019-03-25T10:25:00.344Z,99615.23
2019-03-25T10:27:30.105Z,99621.51
2019-03-25T10:29:59.719Z,99629.78
2019-03-25T10:32:29.837Z,99623.73
2019-03-25T10:35:03.729Z,99612.73
2019-03-25T10:37:37.141Z,99616.78
2019-03-25T10:40:24.139Z,99614.23
2019-03-25T10:42:53.810Z,99611.41
2019-03-25T10:45:24.761Z,99607.89
2019-03-25T10:47:54.517Z,99607.25
2019-03-25T10:50:24.280Z,99610.87
2019-03-25T10:52:53.879Z,99596.93
2019-03-25T10:55:25.681Z,99596.87
2019-03-25T10:57:55.682Z,99594.96
2019-03-25T11:00:25.668Z,99589.29
2019-03-25T11:02:56.321Z,99580.05
2019-03-25T11:05:29.620Z,99581.56
2019-03-25T11:07:59.288Z,99581.35
2019-03-25T11:10:28.871Z,99573.52
2019-03-25T11:12:58.530Z,99565.64
2019-03-25T11:15:29.584Z,99553.85
2019-03-25T11:17:59.180Z,99561.31
2019-03-25T11:20:28.761Z,99546.73
2019-03-25T11:22:58.429Z,99549.75
2019-03-25T11:25:28.062Z,99541.17
2019-03-25T11:27:57.657Z,99544.82
2019-03-25T11:31:01.964Z,99546.59
2019-03-25T11:33:31.690Z,99539.42
2019-03-25T11:36:02.819Z,99557.19
2019-03-25T11:38:32.733Z,99558.23
2019-03-25T11:41:02.327Z,99558.16
2019-03-25T11:43:33.074Z,99560.92
2019-03-25T11:46:02.694Z,99557.66
2019-03-25T11:48:35.094Z,99562.50
2019-03-25T11:51:04.759Z,99567.03
2019-03-25T11:53:35.408Z,99576.06
2019-03-25T11:56:05.541Z,99570.00
2019-03-25T11:58:35.123Z,99561.96
2019-03-25T12:01:04.781Z,99565.07
2019-03-25T12:03:36.658Z,99559.50
2019-03-25T12:06:06.356Z,99570.59
2019-03-25T12:08:35.994Z,99572.96
2019-03-25T12:11:05.559Z,99553.63
2019-03-25T12:13:35.161Z,99559.04
2019-03-25T12:16:05.015Z,99559.00
2019-03-25T12:18:34.594Z,99551.95
2019-03-25T12:21:06.475Z,99573.14
2019-03-25T12:23:37.342Z,99572.63
2019-03-25T12:26:06.990Z,99563.56
2019-03-25T12:28:36.628Z,99531.94
2019-03-25T12:31:06.249Z,99553.39
2019-03-25T12:33:35.874Z,99568.88
2019-03-25T12:36:06.021Z,99573.87
2019-03-25T12:38:35.741Z,99592.34
2019-03-25T12:41:05.502Z,99599.36
2019-03-25T12:43:35.104Z,99615.26
2019-03-25T12:46:04.691Z,99619.59
2019-03-25T12:48:34.362Z,99637.72
2019-03-25T12:51:04.027Z,99633.06
2019-03-25T12:53:33.749Z,99626.08
2019-03-25T12:56:03.827Z,99630.27
2019-03-25T12:58:33.564Z,99620.23
2019-03-25T13:01:03.261Z,99594.98
2019-03-25T13:03:33.159Z,99592.25
2019-03-25T13:06:06.887Z,99594.47
2019-03-25T13:08:37.481Z,99597.48
2019-03-25T13:11:07.705Z,99586.36
2019-03-25T13:13:40.881Z,99580.17
2019-03-25T13:16:12.628Z,99581.92
2019-03-25T13:18:43.205Z,99574.70
2019-03-25T13:21:12.994Z,99586.97
2019-03-25T13:23:45.193Z,99588.19
2019-03-25T13:26:15.272Z,99632.84
2019-03-25T13:28:45.450Z,99643.00
2019-03-25T13:31:15.836Z,99636.90
2019-03-25T13:33:45.853Z,99638.92
2019-03-25T13:36:15.498Z,99638.96
2019-03-25T13:38:45.193Z,99636.36
2019-03-25T13:41:15.680Z,99634.93
2019-03-25T13:43:45.623Z,99631.09
2019-03-25T13:46:15.442Z,99656.19
2019-03-25T13:48:45.177Z,99659.50
2019-03-25T13:51:14.953Z,99659.61
2019-03-25T13:53:48.353Z,99664.50
2019-03-25T13:56:18.173Z,99667.58
2019-03-25T13:58:48.469Z,99662.70
2019-03-25T14:01:18.379Z,99662.64
2019-03-25T14:03:50.057Z,99666.47
2019-03-25T14:06:22.429Z,99661.38
2019-03-25T14:08:55.841Z,99665.78
2019-03-25T14:11:25.542Z,99656.96
2019-03-25T14:13:55.342Z,99650.06
2019-03-25T14:16:26.370Z,99643.98
2019-03-25T14:18:55.986Z,99640.59
2019-03-25T14:21:25.711Z,99642.66
2019-03-25T14:23:55.701Z,99645.55
2019-03-25T14:26:28.564Z,99638.90
2019-03-25T14:28:59.495Z,99637.75
2019-03-25T14:31:29.369Z,99643.98
2019-03-25T14:33:59.253Z,99632.34
2019-03-25T14:36:31.154Z,99637.06
2019-03-25T14:39:00.994Z,99641.87
2019-03-25T14:41:33.033Z,99643.98
2019-03-25T14:44:02.709Z,99651.58
2019-03-25T14:46:32.253Z,99645.17
2019-03-25T14:49:02.123Z,99649.23
2019-03-25T14:51:32.864Z,99640.02
2019-03-25T14:54:02.448Z,99644.86
2019-03-25T14:56:32.032Z,99653.34
2019-03-25T14:59:01.740Z,99652.53
2019-03-25T15:01:31.371Z,99648.34
2019-03-25T15:04:00.995Z,99632.52
2019-03-25T15:06:30.558Z,99631.44
2019-03-25T15:09:00.129Z,99642.97
2019-03-25T15:11:29.753Z,99638.61
2019-03-25T15:13:59.303Z,99629.83
2019-03-25T15:16:28.896Z,99642.27
2019-03-25T15:18:58.439Z,99638.61
2019-03-25T15:21:28.006Z,99631.61
2019-03-25T15:23:57.538Z,99616.77
2019-03-25T15:26:27.124Z,99629.34
2019-03-25T15:28:57.186Z,99624.24
2019-03-25T15:31:26.735Z,99627.41
2019-03-25T15:33:56.348Z,99634.77
2019-03-25T15:36:26.480Z,99631.92
2019-03-25T15:38:56.346Z,99640.47
2019-03-25T15:41:25.979Z,99643.97
2019-03-25T15:43:55.590Z,99646.64
2019-03-25T15:46:25.170Z,99646.14
2019-03-25T15:48:54.768Z,99655.69
2019-03-25T15:51:24.405Z,99676.23
2019-03-25T15:53:54.509Z,99685.56
2019-03-25T15:56:24.140Z,99682.61
2019-03-25T15:58:56.252Z,99673.90
2019-03-25T16:01:26.039Z,99690.00
2019-03-25T16:03:55.887Z,99700.33
2019-03-25T16:06:27.203Z,99702.36
2019-03-25T16:08:56.796Z,99691.51
2019-03-25T16:11:26.721Z,99701.90
2019-03-25T16:13:56.307Z,99687.56
2019-03-25T16:16:26.279Z,99684.50
2019-03-25T16:18:55.931Z,99692.28
2019-03-25T16:21:26.204Z,99694.94
2019-03-25T16:23:56.208Z,99695.39
2019-03-25T16:26:26.229Z,99698.23
2019-03-25T16:28:56.065Z,99689.49
2019-03-25T16:31:28.240Z,99691.78
2019-03-25T16:33:57.893Z,99702.58
2019-03-25T16:36:29.095Z,99701.72
2019-03-25T16:38:58.677Z,99698.45
2019-03-25T16:41:28.537Z,99709.25
2019-03-25T16:43:58.145Z,99686.03
2019-03-25T16:46:30.970Z,99725.58
2019-03-25T16:49:00.577Z,99731.65
2019-03-25T16:51:30.201Z,99732.70
2019-03-25T16:54:00.636Z,99725.03
2019-03-25T16:56:31.853Z,99722.08
2019-03-25T16:59:01.492Z,99718.11
2019-03-25T17:01:31.448Z,99719.17
2019-03-25T17:04:01.066Z,99720.91
2019-03-25T17:06:31.871Z,99730.38
2019-03-25T17:09:01.496Z,99731.03
2019-03-25T17:11:31.327Z,99736.89
2019-03-25T17:14:00.938Z,99727.89
2019-03-25T17:16:30.546Z,99731.38
2019-03-25T17:19:02.092Z,99729.84
2019-03-25T17:21:31.541Z,99736.25
2019-03-25T17:24:01.225Z,99734.93
2019-03-25T17:26:41.929Z,99725.87
2019-03-25T17:29:03.476Z,99721.12
2019-03-25T17:31:33.071Z,99714.53
2019-03-25T17:34:02.645Z,99719.80
2019-03-25T17:36:33.478Z,99718.12
2019-03-25T17:39:03.161Z,99703.98
2019-03-25T17:41:32.890Z,99718.59
2019-03-25T17:44:04.340Z,99727.30
2019-03-25T17:46:35.553Z,99741.20
2019-03-25T17:49:05.859Z,99759.35
2019-03-25T17:51:35.470Z,99766.88
2019-03-25T17:54:05.287Z,99787.14
2019-03-25T17:56:35.946Z,99819.63
2019-03-25T17:59:05.509Z,99846.52
2019-03-25T18:01:36.129Z,99846.67
2019-03-25T18:04:05.994Z,99855.44
2019-03-25T18:06:37.137Z,99853.78
2019-03-25T18:09:09.386Z,99843.90
2019-03-25T18:12:00.444Z,99703.31
2019-03-25T18:14:31.364Z,99840.16
2019-03-25T18:17:01.032Z,99852.97
2019-03-25T18:19:30.693Z,99849.54
2019-03-25T18:22:01.913Z,99853.23
2019-03-25T18:24:31.541Z,99856.05
2019-03-25T18:27:01.151Z,99816.02
2019-03-25T18:29:30.714Z,99853.21
2019-03-25T18:32:00.418Z,99842.59
2019-03-25T18:34:30.033Z,99846.30
2019-03-25T18:36:59.886Z,99838.03
2019-03-25T18:39:29.501Z,99845.77
2019-03-25T18:41:59.119Z,99859.90
2019-03-25T18:44:28.768Z,99865.58
2019-03-25T18:46:58.649Z,99860.97
2019-03-25T18:49:28.762Z,99865.34
2019-03-25T18:51:58.387Z,99868.27
2019-03-25T18:54:28.247Z,99870.45
2019-03-25T18:56:57.935Z,99872.52
2019-03-25T18:59:27.584Z,99875.89
2019-03-25T19:01:59.017Z,99881.28
2019-03-25T19:04:31.250Z,99884.30
2019-03-25T19:07:02.416Z,99895.54
2019-03-25T19:09:32.248Z,99896.41
2019-03-25T19:12:02.405Z,99905.26
2019-03-25T19:14:31.964Z,99907.91
2019-03-25T19:17:05.343Z,99912.94
2019-03-25T19:19:35.305Z,99913.45
2019-03-25T19:22:05.588Z,99909.87
2019-03-25T19:24:35.351Z,99902.99
2019-03-25T19:27:07.746Z,99910.36
2019-03-25T19:29:37.541Z,99915.72
2019-03-25T19:32:07.293Z,99918.45
2019-03-25T19:34:36.994Z,99934.07
2019-03-25T19:37:07.711Z,99946.06
2019-03-25T19:39:38.627Z,99959.09
2019-03-25T19:42:08.789Z,99972.16
2019-03-25T19:44:38.634Z,99963.84
2019-03-25T19:47:09.814Z,99960.71
2019-03-25T19:49:39.394Z,99962.16
2019-03-25T19:52:09.590Z,99966.41
2019-03-25T19:54:39.311Z,99973.69
2019-03-25T19:57:09.208Z,99976.67
2019-03-25T19:59:38.908Z,99975.84
2019-03-25T20:02:18.513Z,99966.45
2019-03-25T20:04:39.859Z,99977.92
2019-03-25T20:07:10.574Z,99981.70
2019-03-25T20:09:42.515Z,99979.31
2019-03-25T20:12:26.041Z,99986.89
2019-03-25T20:14:56.825Z,99980.34
2019-03-25T20:17:27.999Z,99980.44
2019-03-25T20:19:57.999Z,99968.58
2019-03-25T20:22:28.187Z,99969.87
2019-03-25T20:24:58.429Z,99970.34
2019-03-25T20:27:48.881Z,99984.73
2019-03-25T20:30:18.584Z,99989.36
2019-03-25T20:32:48.194Z,99998.42
2019-03-25T20:35:17.783Z,100000.30
2019-03-25T20:37:49.080Z,100008.64
2019-03-25T20:40:18.780Z,100002.97
2019-03-25T20:42:48.944Z,100004.32
2019-03-25T20:45:19.012Z,100003.77
2019-03-25T20:47:50.112Z,100007.84
2019-03-25T20:50:19.734Z,100013.30
2019-03-25T20:52:51.150Z,100015.00
2019-03-25T20:55:20.702Z,100017.71
2019-03-25T20:57:51.597Z,100026.27
2019-03-25T21:00:37.959Z,100033.37
2019-03-25T21:03:07.564Z,100035.86
2019-03-25T21:05:37.151Z,100045.45
2019-03-25T21:08:07.157Z,100043.98
2019-03-25T21:10:36.741Z,100049.98
2019-03-25T21:13:06.382Z,100056.69
2019-03-25T21:15:35.892Z,100073.79
2019-03-25T21:18:05.506Z,100080.59
2019-03-25T21:20:35.130Z,100077.09
2019-03-25T21:23:04.762Z,100073.38
2019-03-25T21:25:34.701Z,100080.08
2019-03-25T21:28:04.312Z,100074.92
2019-03-25T21:30:47.027Z,100071.02
2019-03-25T21:33:05.579Z,100075.88
2019-03-25T21:35:35.164Z,99476.24
2019-03-25T21:38:06.218Z,100081.48
2019-03-25T21:40:35.876Z,100086.28
2019-03-25T21:43:05.645Z,100082.64
2019-03-25T21:45:35.204Z,100087.94
2019-03-25T21:48:05.002Z,100090.74
2019-03-25T21:50:34.696Z,100092.84
2019-03-25T21:53:04.355Z,100098.81
2019-03-25T21:55:34.152Z,100105.13
2019-03-25T21:58:04.177Z,100108.18
2019-03-25T22:00:33.822Z,100113.44
2019-03-25T22:03:11.418Z,100119.48
2019-03-25T22:05:34.700Z,100113.58
2019-03-25T22:08:05.807Z,100127.69
2019-03-25T22:10:35.421Z,100119.30
2019-03-25T22:13:05.036Z,100117.15
2019-03-25T22:15:34.638Z,100114.97
2019-03-25T22:18:04.618Z,100118.83
2019-03-25T22:20:34.279Z,100124.53
2019-03-25T22:23:03.956Z,100128.09
2019-03-25T22:25:33.538Z,100132.44
2019-03-25T22:28:03.126Z,100142.52
2019-03-25T22:30:32.736Z,100134.31
2019-03-25T22:33:02.320Z,100129.59
2019-03-25T22:35:31.903Z,100128.84
2019-03-25T22:38:01.553Z,100124.45
2019-03-25T22:40:31.142Z,100130.97
2019-03-25T22:43:02.210Z,100131.78
2019-03-25T22:45:32.306Z,100132.84
2019-03-25T22:48:03.214Z,100133.83
2019-03-25T22:50:33.246Z,100144.22
2019-03-25T22:53:04.516Z,100148.72
2019-03-25T22:55:34.155Z,100150.14
2019-03-25T22:58:04.954Z,100150.14
2019-03-25T23:00:47.652Z,100150.19
2019-03-25T23:03:17.468Z,100157.50
2019-03-25T23:05:47.369Z,100153.25
2019-03-25T23:08:17.341Z,100154.91
2019-03-25T23:10:47.032Z,100161.64
2019-03-25T23:13:16.738Z,100168.35
2019-03-25T23:15:46.286Z,100167.25
2019-03-25T23:18:16.003Z,100172.91
2019-03-25T23:20:45.696Z,100171.85
2019-03-25T23:23:15.303Z,100171.77
2019-03-25T23:25:44.888Z,100173.39
2019-03-25T23:28:14.527Z,100163.03
2019-03-25T23:30:44.126Z,100173.16
2019-03-25T23:33:15.812Z,100171.66
2019-03-25T23:35:45.384Z,100170.52
2019-03-25T23:38:16.262Z,100179.46
2019-03-25T23:40:45.935Z,100187.67
2019-03-25T23:43:15.559Z,100188.27
2019-03-25T23:45:45.376Z,100183.74
2019-03-25T23:48:15.123Z,100180.95
2019-03-25T23:50:44.787Z,100178.47
2019-03-25T23:53:14.413Z,100185.45
2019-03-25T23:55:44.009Z,100186.37
2019-03-25T23:58:13.621Z,100190.89
